Terminal Aerodrome Forecast
Issued by NWS Northern Indiana

Home | Current Version | Previous Version | Graphics & Text | Print | Product List | Glossary On
Versions: 1 2 3 4 5 6 7 8 9 10 11 12 13 14 15 16 17
000
FTUS43 KIWX 221121
TAFFWA
TAF
KFWA 221121Z 2212/2312 22008KT P6SM SCT100
     FM221500 21014G22KT P6SM SCT100
     FM230000 20013KT P6SM VCTS BKN080CB
     FM230400 19011KT P6SM VCTS OVC035CB
     FM230900 22010KT 4SM SHRA VCTS OVC015CB=

USA.gov is the U.S. government's official web portal to all federal, state and local government web resources and services.